sensor_id;sensor_type;location;lat;lon;timestamp;P1;durP1;ratioP1;P2;durP2;ratioP2
27225;SDS011;14732;51.074;3.788;2023-01-15T00:00:49;12.88;;;1.42;;
27225;SDS011;14732;51.074;3.788;2023-01-15T00:03:16;10.48;;;1.15;;
27225;SDS011;14732;51.074;3.788;2023-01-15T00:05:42;6.72;;;1.08;;
27225;SDS011;14732;51.074;3.788;2023-01-15T00:08:09;7.03;;;1.00;;
27225;SDS011;14732;51.074;3.788;2023-01-15T00:10:39;5.93;;;1.15;;
27225;SDS011;14732;51.074;3.788;2023-01-15T00:13:05;9.05;;;1.20;;
27225;SDS011;14732;51.074;3.788;2023-01-15T00:15:31;8.32;;;1.00;;
27225;SDS011;14732;51.074;3.788;2023-01-15T00:17:56;5.82;;;0.93;;
27225;SDS011;14732;51.074;3.788;2023-01-15T00:20:22;8.50;;;1.00;;
27225;SDS011;14732;51.074;3.788;2023-01-15T00:22:48;6.18;;;1.00;;
27225;SDS011;14732;51.074;3.788;2023-01-15T00:25:16;11.20;;;1.23;;
27225;SDS011;14732;51.074;3.788;2023-01-15T00:28:01;7.50;;;1.25;;
27225;SDS011;14732;51.074;3.788;2023-01-15T00:30:27;10.77;;;1.38;;
27225;SDS011;14732;51.074;3.788;2023-01-15T00:32:53;7.00;;;1.10;;
27225;SDS011;14732;51.074;3.788;2023-01-15T00:35:21;10.80;;;1.10;;
27225;SDS011;14732;51.074;3.788;2023-01-15T00:37:48;11.63;;;1.17;;
27225;SDS011;14732;51.074;3.788;2023-01-15T00:40:14;10.38;;;1.30;;
27225;SDS011;14732;51.074;3.788;2023-01-15T00:42:42;10.52;;;1.23;;
27225;SDS011;14732;51.074;3.788;2023-01-15T00:45:10;13.57;;;1.20;;
27225;SDS011;14732;51.074;3.788;2023-01-15T00:47:38;7.80;;;1.25;;
27225;SDS011;14732;51.074;3.788;2023-01-15T00:50:07;8.90;;;1.10;;
27225;SDS011;14732;51.074;3.788;2023-01-15T00:52:39;9.05;;;1.30;;
27225;SDS011;14732;51.074;3.788;2023-01-15T00:55:06;10.40;;;1.20;;
27225;SDS011;14732;51.074;3.788;2023-01-15T00:57:33;9.88;;;1.23;;
27225;SDS011;14732;51.074;3.788;2023-01-15T00:59:59;7.20;;;1.30;;
27225;SDS011;14732;51.074;3.788;2023-01-15T01:02:24;5.95;;;1.13;;
27225;SDS011;14732;51.074;3.788;2023-01-15T01:04:50;12.18;;;1.25;;
27225;SDS011;14732;51.074;3.788;2023-01-15T01:07:19;8.65;;;1.27;;
27225;SDS011;14732;51.074;3.788;2023-01-15T01:09:45;11.35;;;1.08;;
27225;SDS011;14732;51.074;3.788;2023-01-15T01:12:10;9.05;;;1.08;;
27225;SDS011;14732;51.074;3.788;2023-01-15T01:14:36;10.27;;;1.20;;
27225;SDS011;14732;51.074;3.788;2023-01-15T01:17:02;10.38;;;1.30;;
27225;SDS011;14732;51.074;3.788;2023-01-15T01:19:28;6.55;;;1.00;;
27225;SDS011;14732;51.074;3.788;2023-01-15T01:21:54;10.60;;;1.30;;
27225;SDS011;14732;51.074;3.788;2023-01-15T01:24:20;8.07;;;1.20;;
27225;SDS011;14732;51.074;3.788;2023-01-15T01:26:50;8.82;;;1.30;;
27225;SDS011;14732;51.074;3.788;2023-01-15T01:29:17;11.38;;;1.65;;
27225;SDS011;14732;51.074;3.788;2023-01-15T01:31:45;8.50;;;1.33;;
27225;SDS011;14732;51.074;3.788;2023-01-15T01:34:15;10.50;;;1.10;;
27225;SDS011;14732;51.074;3.788;2023-01-15T01:36:41;7.88;;;1.02;;
27225;SDS011;14732;51.074;3.788;2023-01-15T01:39:11;10.30;;;1.10;;
27225;SDS011;14732;51.074;3.788;2023-01-15T01:41:39;6.93;;;1.17;;
27225;SDS011;14732;51.074;3.788;2023-01-15T01:46:33;7.22;;;0.98;;
27225;SDS011;14732;51.074;3.788;2023-01-15T01:49:05;7.55;;;1.00;;
27225;SDS011;14732;51.074;3.788;2023-01-15T01:51:36;13.45;;;1.42;;
27225;SDS011;14732;51.074;3.788;2023-01-15T01:54:29;9.25;;;1.10;;
27225;SDS011;14732;51.074;3.788;2023-01-15T01:56:58;6.72;;;1.15;;
27225;SDS011;14732;51.074;3.788;2023-01-15T01:59:25;7.25;;;1.42;;
27225;SDS011;14732;51.074;3.788;2023-01-15T02:01:52;12.45;;;1.83;;
27225;SDS011;14732;51.074;3.788;2023-01-15T02:04:20;13.57;;;1.70;;
27225;SDS011;14732;51.074;3.788;2023-01-15T02:06:48;12.68;;;1.50;;
27225;SDS011;14732;51.074;3.788;2023-01-15T02:09:18;12.32;;;1.90;;
27225;SDS011;14732;51.074;3.788;2023-01-15T02:11:44;11.65;;;1.75;;
27225;SDS011;14732;51.074;3.788;2023-01-15T02:16:39;9.27;;;1.75;;
27225;SDS011;14732;51.074;3.788;2023-01-15T02:19:22;14.57;;;1.50;;
27225;SDS011;14732;51.074;3.788;2023-01-15T02:28:29;12.93;;;1.30;;
27225;SDS011;14732;51.074;3.788;2023-01-15T02:33:38;8.70;;;1.20;;
27225;SDS011;14732;51.074;3.788;2023-01-15T02:36:29;7.88;;;1.20;;
27225;SDS011;14732;51.074;3.788;2023-01-15T02:38:58;7.72;;;1.30;;
27225;SDS011;14732;51.074;3.788;2023-01-15T02:41:31;17.08;;;1.80;;
27225;SDS011;14732;51.074;3.788;2023-01-15T02:44:01;11.45;;;1.20;;
27225;SDS011;14732;51.074;3.788;2023-01-15T02:46:30;9.25;;;1.17;;
27225;SDS011;14732;51.074;3.788;2023-01-15T02:48:59;10.45;;;1.77;;
27225;SDS011;14732;51.074;3.788;2023-01-15T02:51:28;11.05;;;1.17;;
27225;SDS011;14732;51.074;3.788;2023-01-15T02:54:00;10.95;;;1.10;;
27225;SDS011;14732;51.074;3.788;2023-01-15T02:56:30;11.23;;;1.50;;
27225;SDS011;14732;51.074;3.788;2023-01-15T03:01:37;7.57;;;1.30;;
27225;SDS011;14732;51.074;3.788;2023-01-15T03:04:21;15.15;;;1.50;;
27225;SDS011;14732;51.074;3.788;2023-01-15T03:07:21;10.60;;;1.52;;
27225;SDS011;14732;51.074;3.788;2023-01-15T03:09:52;9.10;;;1.38;;
27225;SDS011;14732;51.074;3.788;2023-01-15T03:12:29;9.82;;;1.05;;
27225;SDS011;14732;51.074;3.788;2023-01-15T03:18:31;12.57;;;1.42;;
27225;SDS011;14732;51.074;3.788;2023-01-15T03:21:15;11.25;;;1.45;;
27225;SDS011;14732;51.074;3.788;2023-01-15T03:23:46;11.70;;;1.40;;
27225;SDS011;14732;51.074;3.788;2023-01-15T03:26:16;13.35;;;1.45;;
27225;SDS011;14732;51.074;3.788;2023-01-15T03:28:42;9.45;;;1.08;;
27225;SDS011;14732;51.074;3.788;2023-01-15T03:31:10;10.05;;;1.27;;
27225;SDS011;14732;51.074;3.788;2023-01-15T03:33:36;14.50;;;1.77;;
27225;SDS011;14732;51.074;3.788;2023-01-15T03:36:03;10.35;;;0.98;;
27225;SDS011;14732;51.074;3.788;2023-01-15T03:38:35;14.10;;;1.15;;
27225;SDS011;14732;51.074;3.788;2023-01-15T03:46:39;13.27;;;1.95;;
27225;SDS011;14732;51.074;3.788;2023-01-15T03:49:25;11.85;;;1.20;;
27225;SDS011;14732;51.074;3.788;2023-01-15T03:59:50;9.95;;;1.00;;
27225;SDS011;14732;51.074;3.788;2023-01-15T04:02:23;9.57;;;1.40;;
27225;SDS011;14732;51.074;3.788;2023-01-15T04:04:51;8.98;;;1.52;;
27225;SDS011;14732;51.074;3.788;2023-01-15T04:07:18;8.40;;;1.10;;
27225;SDS011;14732;51.074;3.788;2023-01-15T04:09:44;13.13;;;1.20;;
27225;SDS011;14732;51.074;3.788;2023-01-15T04:12:10;7.65;;;1.20;;
27225;SDS011;14732;51.074;3.788;2023-01-15T04:14:37;10.93;;;1.27;;
27225;SDS011;14732;51.074;3.788;2023-01-15T04:17:11;5.50;;;1.50;;
27225;SDS011;14732;51.074;3.788;2023-01-15T04:19:38;14.60;;;1.60;;
27225;SDS011;14732;51.074;3.788;2023-01-15T04:22:04;5.97;;;0.93;;
27225;SDS011;14732;51.074;3.788;2023-01-15T04:24:31;9.75;;;1.38;;
27225;SDS011;14732;51.074;3.788;2023-01-15T04:26:58;9.68;;;1.10;;
27225;SDS011;14732;51.074;3.788;2023-01-15T04:29:30;11.07;;;1.50;;
27225;SDS011;14732;51.074;3.788;2023-01-15T04:31:56;12.68;;;1.35;;
27225;SDS011;14732;51.074;3.788;2023-01-15T04:34:25;8.82;;;1.30;;
27225;SDS011;14732;51.074;3.788;2023-01-15T04:36:52;15.52;;;1.48;;
27225;SDS011;14732;51.074;3.788;2023-01-15T04:41:48;7.50;;;1.23;;
27225;SDS011;14732;51.074;3.788;2023-01-15T04:44:34;12.68;;;1.40;;
27225;SDS011;14732;51.074;3.788;2023-01-15T04:47:00;5.55;;;1.08;;
27225;SDS011;14732;51.074;3.788;2023-01-15T04:49:26;7.93;;;0.88;;
27225;SDS011;14732;51.074;3.788;2023-01-15T04:51:56;6.05;;;1.27;;
27225;SDS011;14732;51.074;3.788;2023-01-15T04:54:26;12.52;;;1.23;;
27225;SDS011;14732;51.074;3.788;2023-01-15T04:56:53;7.57;;;1.30;;
27225;SDS011;14732;51.074;3.788;2023-01-15T04:59:20;11.10;;;1.58;;
27225;SDS011;14732;51.074;3.788;2023-01-15T05:01:50;8.15;;;1.17;;
27225;SDS011;14732;51.074;3.788;2023-01-15T05:04:16;11.60;;;1.42;;
27225;SDS011;14732;51.074;3.788;2023-01-15T05:06:42;10.15;;;1.30;;
27225;SDS011;14732;51.074;3.788;2023-01-15T05:09:08;9.55;;;1.15;;
27225;SDS011;14732;51.074;3.788;2023-01-15T05:11:34;7.32;;;0.98;;
27225;SDS011;14732;51.074;3.788;2023-01-15T05:14:03;12.57;;;1.80;;
27225;SDS011;14732;51.074;3.788;2023-01-15T05:16:30;12.85;;;1.27;;
27225;SDS011;14732;51.074;3.788;2023-01-15T05:18:58;4.45;;;0.80;;
27225;SDS011;14732;51.074;3.788;2023-01-15T05:21:27;6.78;;;1.65;;
27225;SDS011;14732;51.074;3.788;2023-01-15T05:23:59;8.52;;;1.17;;
27225;SDS011;14732;51.074;3.788;2023-01-15T05:26:35;5.68;;;0.90;;
27225;SDS011;14732;51.074;3.788;2023-01-15T05:29:01;6.78;;;1.45;;
27225;SDS011;14732;51.074;3.788;2023-01-15T05:31:28;8.15;;;0.98;;
27225;SDS011;14732;51.074;3.788;2023-01-15T05:33:54;8.57;;;0.95;;
27225;SDS011;14732;51.074;3.788;2023-01-15T05:36:22;9.75;;;1.10;;
27225;SDS011;14732;51.074;3.788;2023-01-15T05:38:50;6.10;;;1.00;;
27225;SDS011;14732;51.074;3.788;2023-01-15T05:41:17;8.32;;;0.95;;
27225;SDS011;14732;51.074;3.788;2023-01-15T05:44:03;8.63;;;1.02;;
27225;SDS011;14732;51.074;3.788;2023-01-15T05:46:33;6.60;;;0.70;;
27225;SDS011;14732;51.074;3.788;2023-01-15T05:49:04;3.83;;;0.63;;
27225;SDS011;14732;51.074;3.788;2023-01-15T05:51:34;7.38;;;0.80;;
27225;SDS011;14732;51.074;3.788;2023-01-15T05:54:00;12.30;;;1.10;;
27225;SDS011;14732;51.074;3.788;2023-01-15T05:56:27;9.48;;;0.80;;
27225;SDS011;14732;51.074;3.788;2023-01-15T05:58:53;8.82;;;1.23;;
27225;SDS011;14732;51.074;3.788;2023-01-15T06:01:20;5.90;;;0.90;;
27225;SDS011;14732;51.074;3.788;2023-01-15T06:03:46;7.57;;;1.05;;
27225;SDS011;14732;51.074;3.788;2023-01-15T06:06:13;6.18;;;0.95;;
27225;SDS011;14732;51.074;3.788;2023-01-15T06:08:42;7.45;;;1.20;;
27225;SDS011;14732;51.074;3.788;2023-01-15T06:11:10;9.70;;;1.30;;
27225;SDS011;14732;51.074;3.788;2023-01-15T06:13:37;10.40;;;1.15;;
27225;SDS011;14732;51.074;3.788;2023-01-15T06:16:05;4.95;;;1.02;;
27225;SDS011;14732;51.074;3.788;2023-01-15T06:21:04;6.03;;;0.80;;
27225;SDS011;14732;51.074;3.788;2023-01-15T06:23:32;13.20;;;1.40;;
27225;SDS011;14732;51.074;3.788;2023-01-15T06:26:05;9.02;;;0.88;;
27225;SDS011;14732;51.074;3.788;2023-01-15T06:28:33;8.68;;;0.93;;
27225;SDS011;14732;51.074;3.788;2023-01-15T06:31:04;5.03;;;1.00;;
27225;SDS011;14732;51.074;3.788;2023-01-15T06:33:32;6.05;;;1.17;;
27225;SDS011;14732;51.074;3.788;2023-01-15T06:36:01;5.93;;;1.38;;
27225;SDS011;14732;51.074;3.788;2023-01-15T06:38:28;5.30;;;1.00;;
27225;SDS011;14732;51.074;3.788;2023-01-15T06:40:54;7.07;;;1.05;;
27225;SDS011;14732;51.074;3.788;2023-01-15T06:43:22;7.25;;;1.40;;
27225;SDS011;14732;51.074;3.788;2023-01-15T06:46:13;8.80;;;1.38;;
27225;SDS011;14732;51.074;3.788;2023-01-15T06:49:02;6.80;;;0.90;;
27225;SDS011;14732;51.074;3.788;2023-01-15T06:51:27;11.00;;;1.40;;
27225;SDS011;14732;51.074;3.788;2023-01-15T06:53:53;10.50;;;1.48;;
27225;SDS011;14732;51.074;3.788;2023-01-15T06:56:19;8.02;;;1.10;;
27225;SDS011;14732;51.074;3.788;2023-01-15T06:58:45;6.00;;;1.20;;
27225;SDS011;14732;51.074;3.788;2023-01-15T07:01:12;7.90;;;0.98;;
27225;SDS011;14732;51.074;3.788;2023-01-15T07:03:39;14.13;;;1.63;;
27225;SDS011;14732;51.074;3.788;2023-01-15T07:06:08;10.95;;;1.50;;
27225;SDS011;14732;51.074;3.788;2023-01-15T07:08:35;9.00;;;1.27;;
27225;SDS011;14732;51.074;3.788;2023-01-15T07:11:02;7.18;;;1.05;;
27225;SDS011;14732;51.074;3.788;2023-01-15T07:13:29;15.80;;;1.02;;
27225;SDS011;14732;51.074;3.788;2023-01-15T07:15:57;13.35;;;1.63;;
27225;SDS011;14732;51.074;3.788;2023-01-15T07:18:27;12.05;;;1.42;;
27225;SDS011;14732;51.074;3.788;2023-01-15T07:23:23;12.20;;;1.52;;
27225;SDS011;14732;51.074;3.788;2023-01-15T07:25:55;9.13;;;1.33;;
27225;SDS011;14732;51.074;3.788;2023-01-15T07:28:33;8.48;;;1.25;;
27225;SDS011;14732;51.074;3.788;2023-01-15T07:30:59;10.05;;;1.40;;
27225;SDS011;14732;51.074;3.788;2023-01-15T07:33:25;10.20;;;1.17;;
27225;SDS011;14732;51.074;3.788;2023-01-15T07:35:51;9.40;;;1.15;;
27225;SDS011;14732;51.074;3.788;2023-01-15T07:38:19;8.85;;;1.27;;
27225;SDS011;14732;51.074;3.788;2023-01-15T07:40:46;8.52;;;1.15;;
27225;SDS011;14732;51.074;3.788;2023-01-15T07:43:32;7.43;;;0.95;;
27225;SDS011;14732;51.074;3.788;2023-01-15T07:46:19;8.93;;;1.27;;
27225;SDS011;14732;51.074;3.788;2023-01-15T07:49:18;9.43;;;1.52;;
27225;SDS011;14732;51.074;3.788;2023-01-15T07:52:02;8.32;;;1.08;;
27225;SDS011;14732;51.074;3.788;2023-01-15T07:54:28;9.27;;;1.90;;
27225;SDS011;14732;51.074;3.788;2023-01-15T07:56:59;14.73;;;1.30;;
27225;SDS011;14732;51.074;3.788;2023-01-15T07:59:25;14.90;;;1.80;;
27225;SDS011;14732;51.074;3.788;2023-01-15T08:01:51;8.07;;;0.90;;
27225;SDS011;14732;51.074;3.788;2023-01-15T08:04:17;6.65;;;1.13;;
27225;SDS011;14732;51.074;3.788;2023-01-15T08:06:43;8.63;;;1.20;;
27225;SDS011;14732;51.074;3.788;2023-01-15T08:09:09;5.97;;;1.00;;
27225;SDS011;14732;51.074;3.788;2023-01-15T08:11:35;10.65;;;1.08;;
27225;SDS011;14732;51.074;3.788;2023-01-15T08:14:27;15.27;;;1.52;;
27225;SDS011;14732;51.074;3.788;2023-01-15T08:17:12;12.57;;;1.42;;
27225;SDS011;14732;51.074;3.788;2023-01-15T08:19:37;11.75;;;1.23;;
27225;SDS011;14732;51.074;3.788;2023-01-15T08:22:03;7.60;;;1.20;;
27225;SDS011;14732;51.074;3.788;2023-01-15T08:25:03;12.48;;;1.52;;
27225;SDS011;14732;51.074;3.788;2023-01-15T08:27:26;15.20;;;1.73;;
27225;SDS011;14732;51.074;3.788;2023-01-15T08:29:53;10.73;;;1.10;;
27225;SDS011;14732;51.074;3.788;2023-01-15T08:32:19;15.57;;;1.88;;
27225;SDS011;14732;51.074;3.788;2023-01-15T08:34:45;14.13;;;1.75;;
27225;SDS011;14732;51.074;3.788;2023-01-15T08:37:10;6.28;;;1.02;;
27225;SDS011;14732;51.074;3.788;2023-01-15T08:39:36;8.90;;;1.30;;
27225;SDS011;14732;51.074;3.788;2023-01-15T08:42:03;10.50;;;1.38;;
27225;SDS011;14732;51.074;3.788;2023-01-15T08:44:29;9.27;;;1.20;;
27225;SDS011;14732;51.074;3.788;2023-01-15T08:46:54;9.45;;;1.40;;
27225;SDS011;14732;51.074;3.788;2023-01-15T08:49:20;14.27;;;1.98;;
27225;SDS011;14732;51.074;3.788;2023-01-15T08:51:46;15.88;;;1.48;;
27225;SDS011;14732;51.074;3.788;2023-01-15T08:54:15;10.63;;;1.48;;
27225;SDS011;14732;51.074;3.788;2023-01-15T08:56:42;11.45;;;1.40;;
27225;SDS011;14732;51.074;3.788;2023-01-15T08:59:09;9.30;;;1.38;;
27225;SDS011;14732;51.074;3.788;2023-01-15T09:01:34;9.98;;;1.25;;
27225;SDS011;14732;51.074;3.788;2023-01-15T09:04:00;8.55;;;1.30;;
27225;SDS011;14732;51.074;3.788;2023-01-15T09:06:26;9.15;;;1.70;;
27225;SDS011;14732;51.074;3.788;2023-01-15T09:08:52;9.88;;;1.60;;
27225;SDS011;14732;51.074;3.788;2023-01-15T09:11:19;11.45;;;1.80;;
27225;SDS011;14732;51.074;3.788;2023-01-15T09:13:45;9.95;;;1.30;;
27225;SDS011;14732;51.074;3.788;2023-01-15T09:16:12;9.20;;;1.63;;
27225;SDS011;14732;51.074;3.788;2023-01-15T09:18:38;9.57;;;1.58;;
27225;SDS011;14732;51.074;3.788;2023-01-15T09:21:04;8.13;;;1.42;;
27225;SDS011;14732;51.074;3.788;2023-01-15T09:23:31;8.55;;;1.48;;
27225;SDS011;14732;51.074;3.788;2023-01-15T09:25:58;12.00;;;1.60;;
27225;SDS011;14732;51.074;3.788;2023-01-15T09:28:26;10.65;;;1.55;;
27225;SDS011;14732;51.074;3.788;2023-01-15T09:30:53;8.93;;;1.33;;
27225;SDS011;14732;51.074;3.788;2023-01-15T09:33:19;11.55;;;1.25;;
27225;SDS011;14732;51.074;3.788;2023-01-15T09:35:45;8.85;;;1.92;;
27225;SDS011;14732;51.074;3.788;2023-01-15T09:38:14;9.60;;;1.42;;
27225;SDS011;14732;51.074;3.788;2023-01-15T09:49:08;6.15;;;0.98;;
27225;SDS011;14732;51.074;3.788;2023-01-15T09:57:14;2.80;;;0.75;;
27225;SDS011;14732;51.074;3.788;2023-01-15T09:59:48;5.43;;;0.68;;
27225;SDS011;14732;51.074;3.788;2023-01-15T10:02:25;3.03;;;0.70;;
27225;SDS011;14732;51.074;3.788;2023-01-15T10:10:40;3.90;;;0.60;;
27225;SDS011;14732;51.074;3.788;2023-01-15T10:16:03;3.08;;;0.68;;
27225;SDS011;14732;51.074;3.788;2023-01-15T10:18:30;2.88;;;0.63;;
27225;SDS011;14732;51.074;3.788;2023-01-15T10:21:02;3.53;;;0.60;;
27225;SDS011;14732;51.074;3.788;2023-01-15T10:26:38;6.55;;;0.93;;
27225;SDS011;14732;51.074;3.788;2023-01-15T10:31:50;6.20;;;1.13;;
27225;SDS011;14732;51.074;3.788;2023-01-15T10:37:02;2.42;;;0.50;;
27225;SDS011;14732;51.074;3.788;2023-01-15T10:39:44;5.95;;;0.80;;
27225;SDS011;14732;51.074;3.788;2023-01-15T10:42:45;3.95;;;0.80;;
27225;SDS011;14732;51.074;3.788;2023-01-15T10:45:25;6.18;;;0.80;;
27225;SDS011;14732;51.074;3.788;2023-01-15T10:48:00;6.63;;;0.80;;
27225;SDS011;14732;51.074;3.788;2023-01-15T10:50:49;7.88;;;1.10;;
27225;SDS011;14732;51.074;3.788;2023-01-15T10:53:23;3.53;;;1.25;;
27225;SDS011;14732;51.074;3.788;2023-01-15T10:55:57;5.18;;;0.70;;
27225;SDS011;14732;51.074;3.788;2023-01-15T10:58:42;5.63;;;1.02;;
27225;SDS011;14732;51.074;3.788;2023-01-15T11:01:16;8.00;;;1.00;;
27225;SDS011;14732;51.074;3.788;2023-01-15T11:03:47;7.15;;;0.82;;
27225;SDS011;14732;51.074;3.788;2023-01-15T11:06:17;5.47;;;2.47;;
27225;SDS011;14732;51.074;3.788;2023-01-15T11:08:46;9.02;;;1.10;;
27225;SDS011;14732;51.074;3.788;2023-01-15T11:11:29;7.63;;;1.02;;
27225;SDS011;14732;51.074;3.788;2023-01-15T11:17:28;3.38;;;0.70;;
27225;SDS011;14732;51.074;3.788;2023-01-15T11:20:49;6.45;;;1.13;;
27225;SDS011;14732;51.074;3.788;2023-01-15T11:23:15;3.30;;;0.85;;
27225;SDS011;14732;51.074;3.788;2023-01-15T11:25:47;5.70;;;0.90;;
27225;SDS011;14732;51.074;3.788;2023-01-15T11:28:28;8.00;;;0.85;;
27225;SDS011;14732;51.074;3.788;2023-01-15T11:31:04;4.78;;;0.90;;
27225;SDS011;14732;51.074;3.788;2023-01-15T11:33:31;4.15;;;0.80;;
27225;SDS011;14732;51.074;3.788;2023-01-15T11:35:59;5.45;;;0.93;;
27225;SDS011;14732;51.074;3.788;2023-01-15T11:38:36;4.53;;;0.90;;
27225;SDS011;14732;51.074;3.788;2023-01-15T11:43:56;4.82;;;1.15;;
27225;SDS011;14732;51.074;3.788;2023-01-15T11:46:41;6.60;;;1.00;;
27225;SDS011;14732;51.074;3.788;2023-01-15T11:49:28;4.90;;;1.02;;
27225;SDS011;14732;51.074;3.788;2023-01-15T11:52:13;4.63;;;0.80;;
27225;SDS011;14732;51.074;3.788;2023-01-15T11:54:43;6.05;;;1.00;;
27225;SDS011;14732;51.074;3.788;2023-01-15T11:57:21;5.25;;;0.85;;
27225;SDS011;14732;51.074;3.788;2023-01-15T11:59:55;8.60;;;1.02;;
27225;SDS011;14732;51.074;3.788;2023-01-15T12:02:30;5.78;;;1.25;;
27225;SDS011;14732;51.074;3.788;2023-01-15T12:05:14;3.85;;;0.98;;
27225;SDS011;14732;51.074;3.788;2023-01-15T12:07:44;5.25;;;0.98;;
27225;SDS011;14732;51.074;3.788;2023-01-15T12:21:04;3.90;;;1.10;;
27225;SDS011;14732;51.074;3.788;2023-01-15T12:26:30;5.13;;;0.80;;
27225;SDS011;14732;51.074;3.788;2023-01-15T12:31:54;5.68;;;0.77;;
27225;SDS011;14732;51.074;3.788;2023-01-15T12:37:13;9.27;;;1.27;;
27225;SDS011;14732;51.074;3.788;2023-01-15T12:39:51;6.05;;;1.00;;
27225;SDS011;14732;51.074;3.788;2023-01-15T12:42:25;6.72;;;1.33;;
27225;SDS011;14732;51.074;3.788;2023-01-15T12:45:17;5.15;;;0.90;;
27225;SDS011;14732;51.074;3.788;2023-01-15T12:50:58;5.95;;;1.00;;
27225;SDS011;14732;51.074;3.788;2023-01-15T12:53:45;4.88;;;1.05;;
27225;SDS011;14732;51.074;3.788;2023-01-15T13:12:34;3.85;;;0.90;;
27225;SDS011;14732;51.074;3.788;2023-01-15T13:15:00;6.28;;;0.98;;
27225;SDS011;14732;51.074;3.788;2023-01-15T13:17:52;3.25;;;0.70;;
27225;SDS011;14732;51.074;3.788;2023-01-15T13:20:50;3.08;;;0.68;;
27225;SDS011;14732;51.074;3.788;2023-01-15T13:23:37;3.50;;;0.70;;
27225;SDS011;14732;51.074;3.788;2023-01-15T13:34:22;1.63;;;0.73;;
27225;SDS011;14732;51.074;3.788;2023-01-15T13:36:53;4.75;;;0.70;;
27225;SDS011;14732;51.074;3.788;2023-01-15T13:39:24;3.10;;;0.70;;
27225;SDS011;14732;51.074;3.788;2023-01-15T13:41:58;1.83;;;0.70;;
27225;SDS011;14732;51.074;3.788;2023-01-15T13:44:46;1.45;;;0.60;;
27225;SDS011;14732;51.074;3.788;2023-01-15T13:47:17;4.60;;;0.70;;
27225;SDS011;14732;51.074;3.788;2023-01-15T13:49:54;3.42;;;0.63;;
27225;SDS011;14732;51.074;3.788;2023-01-15T13:52:29;2.58;;;0.70;;
27225;SDS011;14732;51.074;3.788;2023-01-15T13:54:58;2.28;;;0.60;;
27225;SDS011;14732;51.074;3.788;2023-01-15T13:57:34;1.98;;;0.57;;
27225;SDS011;14732;51.074;3.788;2023-01-15T14:00:04;3.63;;;0.70;;
27225;SDS011;14732;51.074;3.788;2023-01-15T14:02:36;3.42;;;0.70;;
27225;SDS011;14732;51.074;3.788;2023-01-15T14:07:50;3.35;;;0.80;;
27225;SDS011;14732;51.074;3.788;2023-01-15T14:34:39;7.80;;;1.10;;
27225;SDS011;14732;51.074;3.788;2023-01-15T14:37:21;3.50;;;1.10;;
27225;SDS011;14732;51.074;3.788;2023-01-15T14:50:23;9.02;;;1.10;;
27225;SDS011;14732;51.074;3.788;2023-01-15T14:53:05;1.67;;;0.82;;
27225;SDS011;14732;51.074;3.788;2023-01-15T14:56:04;3.42;;;1.13;;
27225;SDS011;14732;51.074;3.788;2023-01-15T14:58:44;6.38;;;1.00;;
27225;SDS011;14732;51.074;3.788;2023-01-15T15:03:49;3.58;;;1.08;;
27225;SDS011;14732;51.074;3.788;2023-01-15T15:06:21;3.72;;;1.20;;
27225;SDS011;14732;51.074;3.788;2023-01-15T15:08:49;4.57;;;1.23;;
27225;SDS011;14732;51.074;3.788;2023-01-15T15:11:27;4.28;;;1.15;;
27225;SDS011;14732;51.074;3.788;2023-01-15T15:14:22;3.17;;;0.90;;
27225;SDS011;14732;51.074;3.788;2023-01-15T15:16:51;3.92;;;1.00;;
27225;SDS011;14732;51.074;3.788;2023-01-15T15:22:05;4.53;;;0.85;;
27225;SDS011;14732;51.074;3.788;2023-01-15T15:24:35;6.28;;;0.90;;
27225;SDS011;14732;51.074;3.788;2023-01-15T15:29:40;2.10;;;0.85;;
27225;SDS011;14732;51.074;3.788;2023-01-15T15:32:07;1.95;;;0.75;;
27225;SDS011;14732;51.074;3.788;2023-01-15T15:34:42;3.47;;;1.00;;
27225;SDS011;14732;51.074;3.788;2023-01-15T15:37:21;3.13;;;0.70;;
27225;SDS011;14732;51.074;3.788;2023-01-15T15:40:13;2.42;;;0.73;;
27225;SDS011;14732;51.074;3.788;2023-01-15T15:43:00;2.92;;;0.82;;
27225;SDS011;14732;51.074;3.788;2023-01-15T15:46:27;1.50;;;0.75;;
27225;SDS011;14732;51.074;3.788;2023-01-15T15:49:21;3.53;;;0.85;;
27225;SDS011;14732;51.074;3.788;2023-01-15T15:51:57;3.00;;;0.80;;
27225;SDS011;14732;51.074;3.788;2023-01-15T15:54:24;4.07;;;0.90;;
27225;SDS011;14732;51.074;3.788;2023-01-15T15:57:02;7.55;;;1.00;;
27225;SDS011;14732;51.074;3.788;2023-01-15T15:59:44;2.97;;;0.80;;
27225;SDS011;14732;51.074;3.788;2023-01-15T16:02:35;3.78;;;0.80;;
27225;SDS011;14732;51.074;3.788;2023-01-15T16:07:51;1.42;;;0.73;;
27225;SDS011;14732;51.074;3.788;2023-01-15T16:10:19;4.05;;;0.90;;
27225;SDS011;14732;51.074;3.788;2023-01-15T16:12:54;3.30;;;0.57;;
27225;SDS011;14732;51.074;3.788;2023-01-15T16:15:24;1.80;;;0.57;;
27225;SDS011;14732;51.074;3.788;2023-01-15T16:17:53;2.58;;;0.70;;
27225;SDS011;14732;51.074;3.788;2023-01-15T16:20:22;2.80;;;0.70;;
27225;SDS011;14732;51.074;3.788;2023-01-15T16:25:31;2.97;;;0.90;;
27225;SDS011;14732;51.074;3.788;2023-01-15T16:28:18;1.95;;;0.75;;
27225;SDS011;14732;51.074;3.788;2023-01-15T16:30:56;3.00;;;0.80;;
27225;SDS011;14732;51.074;3.788;2023-01-15T16:33:24;1.50;;;0.80;;
27225;SDS011;14732;51.074;3.788;2023-01-15T16:35:54;2.13;;;0.63;;
27225;SDS011;14732;51.074;3.788;2023-01-15T16:38:27;1.92;;;0.70;;
27225;SDS011;14732;51.074;3.788;2023-01-15T16:40:55;2.55;;;0.85;;
27225;SDS011;14732;51.074;3.788;2023-01-15T16:43:21;2.05;;;0.90;;
27225;SDS011;14732;51.074;3.788;2023-01-15T16:48:35;3.08;;;0.90;;
27225;SDS011;14732;51.074;3.788;2023-01-15T16:51:44;3.83;;;0.73;;
27225;SDS011;14732;51.074;3.788;2023-01-15T16:53:51;2.25;;;0.70;;
27225;SDS011;14732;51.074;3.788;2023-01-15T16:58:51;1.92;;;0.90;;
27225;SDS011;14732;51.074;3.788;2023-01-15T17:06:44;5.38;;;1.25;;
27225;SDS011;14732;51.074;3.788;2023-01-15T17:09:27;6.30;;;1.40;;
27225;SDS011;14732;51.074;3.788;2023-01-15T17:11:56;4.20;;;0.82;;
27225;SDS011;14732;51.074;3.788;2023-01-15T17:14:24;6.60;;;1.23;;
27225;SDS011;14732;51.074;3.788;2023-01-15T17:19:45;5.43;;;1.10;;
27225;SDS011;14732;51.074;3.788;2023-01-15T17:24:58;3.22;;;1.10;;
27225;SDS011;14732;51.074;3.788;2023-01-15T17:27:43;4.50;;;1.60;;
27225;SDS011;14732;51.074;3.788;2023-01-15T17:30:11;4.80;;;1.23;;
27225;SDS011;14732;51.074;3.788;2023-01-15T17:32:37;4.63;;;1.45;;
27225;SDS011;14732;51.074;3.788;2023-01-15T17:35:05;3.63;;;1.20;;
27225;SDS011;14732;51.074;3.788;2023-01-15T17:37:52;3.78;;;1.38;;
27225;SDS011;14732;51.074;3.788;2023-01-15T17:40:20;5.43;;;2.00;;
27225;SDS011;14732;51.074;3.788;2023-01-15T17:42:46;7.05;;;2.15;;
27225;SDS011;14732;51.074;3.788;2023-01-15T17:45:24;3.90;;;2.00;;
27225;SDS011;14732;51.074;3.788;2023-01-15T17:47:52;6.87;;;2.63;;
27225;SDS011;14732;51.074;3.788;2023-01-15T17:50:18;6.07;;;2.45;;
27225;SDS011;14732;51.074;3.788;2023-01-15T17:52:44;7.25;;;2.17;;
27225;SDS011;14732;51.074;3.788;2023-01-15T17:55:11;7.70;;;2.67;;
27225;SDS011;14732;51.074;3.788;2023-01-15T17:57:57;7.32;;;2.63;;
27225;SDS011;14732;51.074;3.788;2023-01-15T18:00:42;8.95;;;2.88;;
27225;SDS011;14732;51.074;3.788;2023-01-15T18:03:26;9.38;;;4.03;;
27225;SDS011;14732;51.074;3.788;2023-01-15T18:06:17;16.30;;;9.02;;
27225;SDS011;14732;51.074;3.788;2023-01-15T18:08:56;17.50;;;9.57;;
27225;SDS011;14732;51.074;3.788;2023-01-15T18:11:24;6.57;;;3.67;;
27225;SDS011;14732;51.074;3.788;2023-01-15T18:13:58;14.75;;;9.27;;
27225;SDS011;14732;51.074;3.788;2023-01-15T18:16:24;15.20;;;10.13;;
27225;SDS011;14732;51.074;3.788;2023-01-15T18:18:52;17.25;;;12.82;;
27225;SDS011;14732;51.074;3.788;2023-01-15T18:21:18;21.17;;;13.63;;
27225;SDS011;14732;51.074;3.788;2023-01-15T18:23:44;22.23;;;15.82;;